Time;durP1;ratioP1;P1;durP2;ratioP2;P2;SDS_P1;SDS_P2;PMS_P1;PMS_P2;Temp;Humidity;BMP_temperature;BMP_pressure;BME280_temperature;BME280_humidity;BME280_pressure;Samples;Min_cycle;Max_cycle;Signal;HPM_P1;HPM_P2
2022/12/04 00:01:21;;;;;;;33.33;16.13;;;2.00;99.90;;;;;;5074120;28;20245;-80
2022/12/04 00:03:50;;;;;;;29.47;15.23;;;2.00;99.90;;;;;;5075027;28;20193;-80
2022/12/04 00:06:17;;;;;;;30.20;14.83;;;2.00;99.90;;;;;;5075297;28;20206;-80
2022/12/04 00:08:45;;;;;;;28.07;14.87;;;2.00;99.90;;;;;;5073883;28;20201;-80
2022/12/04 00:11:12;;;;;;;29.97;15.87;;;2.00;99.90;;;;;;5073982;28;20202;-80
2022/12/04 00:13:38;;;;;;;32.10;15.10;;;2.00;99.90;;;;;;5074003;28;20175;-80
2022/12/04 00:16:06;;;;;;;32.10;14.97;;;2.00;99.90;;;;;;5074981;28;20210;-80
2022/12/04 00:18:33;;;;;;;28.93;15.17;;;2.00;99.90;;;;;;5074469;28;20175;-80
2022/12/04 00:20:58;;;;;;;26.53;15.27;;;2.00;99.90;;;;;;5074401;28;20182;-80
2022/12/04 00:23:24;;;;;;;28.47;15.87;;;2.00;99.90;;;;;;5073895;28;20186;-79
2022/12/04 00:25:49;;;;;;;28.20;14.77;;;2.00;99.90;;;;;;5074029;28;20191;-81
2022/12/04 00:28:16;;;;;;;32.17;17.20;;;2.00;99.90;;;;;;5075328;28;20184;-80
2022/12/04 00:30:43;;;;;;;33.40;15.47;;;2.00;99.90;;;;;;5076130;28;20174;-79
2022/12/04 00:33:10;;;;;;;28.57;14.43;;;2.00;99.90;;;;;;5076102;28;20171;-80
2022/12/04 00:35:35;;;;;;;29.77;15.77;;;2.00;99.90;;;;;;5075874;28;20668;-80
2022/12/04 00:38:02;;;;;;;27.73;16.10;;;2.00;99.90;;;;;;5076225;28;20185;-79
2022/12/04 00:40:27;;;;;;;27.43;15.97;;;2.00;99.90;;;;;;5075383;28;20652;-80
2022/12/04 00:42:53;;;;;;;30.03;16.03;;;2.00;99.90;;;;;;5076380;28;20179;-80
2022/12/04 00:45:18;;;;;;;28.13;15.17;;;2.00;99.90;;;;;;5075027;28;20603;-80
2022/12/04 00:47:44;;;;;;;30.57;15.13;;;2.00;99.90;;;;;;5075109;28;20272;-80
2022/12/04 00:50:10;;;;;;;29.43;15.07;;;2.00;99.90;;;;;;5074999;28;20171;-80
2022/12/04 00:52:36;;;;;;;27.37;16.13;;;2.00;99.90;;;;;;5074794;28;20597;-80
2022/12/04 00:55:01;;;;;;;28.93;15.00;;;2.00;99.90;;;;;;5076834;28;20174;-80
2022/12/04 00:57:27;;;;;;;28.53;15.40;;;2.00;99.90;;;;;;5076331;28;20251;-79
2022/12/04 00:59:52;;;;;;;27.77;14.80;;;2.00;99.90;;;;;;5076693;28;20182;-80
2022/12/04 01:02:18;;;;;;;34.07;15.73;;;2.00;99.90;;;;;;5074755;28;20174;-80
2022/12/04 01:04:43;;;;;;;30.30;16.23;;;2.00;99.90;;;;;;5077257;28;20233;-80
2022/12/04 01:07:09;;;;;;;28.77;15.43;;;2.00;99.90;;;;;;5076847;28;20197;-81
2022/12/04 01:09:34;;;;;;;33.37;15.70;;;2.00;99.90;;;;;;5077559;28;20189;-80
2022/12/04 01:12:00;;;;;;;31.10;15.97;;;1.90;99.90;;;;;;5075326;28;20284;-80
2022/12/04 01:14:25;;;;;;;30.90;15.83;;;1.90;99.90;;;;;;5077279;28;20178;-80
2022/12/04 01:16:51;;;;;;;29.30;15.80;;;2.00;99.90;;;;;;5075296;28;20191;-81
2022/12/04 01:19:16;;;;;;;30.90;14.80;;;1.90;99.90;;;;;;5075861;28;20167;-80
2022/12/04 01:21:42;;;;;;;27.57;15.37;;;2.00;99.90;;;;;;5075571;28;20186;-80
2022/12/04 01:24:08;;;;;;;30.37;16.50;;;2.00;99.90;;;;;;5075432;28;20171;-80
2022/12/04 01:26:34;;;;;;;28.87;15.27;;;2.00;99.90;;;;;;5075283;28;20201;-81
2022/12/04 01:29:00;;;;;;;30.47;16.67;;;2.00;99.90;;;;;;5078013;28;20229;-80
2022/12/04 01:31:25;;;;;;;32.83;15.90;;;2.00;99.90;;;;;;5077928;28;20198;-81
2022/12/04 01:33:51;;;;;;;33.17;16.60;;;2.00;99.90;;;;;;5073139;28;20179;-81
2022/12/04 01:36:20;;;;;;;33.73;15.40;;;2.00;99.90;;;;;;5073436;28;20202;-81
2022/12/04 01:38:45;;;;;;;32.87;16.40;;;2.00;99.90;;;;;;5073957;28;20167;-81
2022/12/04 01:41:13;;;;;;;30.00;16.53;;;2.00;99.90;;;;;;5077057;28;20179;-80
2022/12/04 01:43:39;;;;;;;29.90;15.00;;;2.00;99.90;;;;;;5077979;28;20183;-81
2022/12/04 01:46:06;;;;;;;30.73;15.87;;;2.00;99.90;;;;;;5075354;28;20604;-81
2022/12/04 01:48:38;;;;;;;29.63;16.57;;;2.00;99.90;;;;;;5076831;28;20182;-80
2022/12/04 01:51:17;;;;;;;29.60;16.30;;;2.00;99.90;;;;;;5076249;28;20238;-81
2022/12/04 01:53:50;;;;;;;31.30;15.77;;;2.00;99.90;;;;;;5077456;28;20150;-81
2022/12/04 01:56:17;;;;;;;25.67;14.63;;;2.00;99.90;;;;;;5075680;28;20331;-81
2022/12/04 01:58:47;;;;;;;32.57;16.23;;;2.00;99.90;;;;;;5076092;28;20175;-80
2022/12/04 02:01:12;;;;;;;29.10;15.33;;;2.00;99.90;;;;;;5077637;28;20175;-80
2022/12/04 02:03:38;;;;;;;29.27;15.13;;;2.00;99.90;;;;;;5077351;28;20568;-80
2022/12/04 02:06:04;;;;;;;29.07;15.77;;;2.00;99.90;;;;;;5074926;28;20203;-80
2022/12/04 02:08:31;;;;;;;31.33;16.27;;;2.00;99.90;;;;;;5075919;28;20278;-79
2022/12/04 02:11:04;;;;;;;32.53;16.87;;;2.00;99.90;;;;;;5074677;28;20213;-81
2022/12/04 02:14:06;;;;;;;34.77;16.67;;;2.00;99.90;;;;;;5074666;28;20185;-81
2022/12/04 02:17:07;;;;;;;29.93;16.30;;;2.00;99.90;;;;;;5075040;28;20198;-80
2022/12/04 02:19:53;;;;;;;28.23;14.87;;;2.00;99.90;;;;;;5004761;28;20176;-80
2022/12/04 02:22:29;;;;;;;27.63;15.47;;;2.00;99.90;;;;;;5074484;28;20659;-81
2022/12/04 02:25:26;;;;;;;28.37;15.50;;;2.00;99.90;;;;;;5075740;28;20159;-81
2022/12/04 02:28:16;;;;;;;30.80;14.70;;;2.00;99.90;;;;;;5074370;28;20660;-81
2022/12/04 02:30:44;;;;;;;30.40;15.77;;;2.00;99.90;;;;;;5044135;28;20242;-80
2022/12/04 02:33:20;;;;;;;26.17;14.73;;;2.00;99.90;;;;;;5075314;28;20168;-80
2022/12/04 02:35:51;;;;;;;30.93;16.00;;;2.00;99.90;;;;;;5074209;28;20688;-80
2022/12/04 02:38:39;;;;;;;27.50;15.37;;;2.00;99.90;;;;;;5075758;28;20182;-81
2022/12/04 02:41:10;;;;;;;33.60;15.67;;;2.00;99.90;;;;;;5074492;28;20224;-81
2022/12/04 02:43:52;;;;;;;31.73;16.57;;;2.00;99.90;;;;;;5074732;28;20223;-80
2022/12/04 02:46:46;;;;;;;29.30;14.77;;;2.00;99.90;;;;;;5075765;28;20270;-81
2022/12/04 02:49:18;;;;;;;29.67;15.93;;;2.00;99.90;;;;;;5074294;28;20273;-81
2022/12/04 02:51:47;;;;;;;35.07;17.07;;;1.90;99.90;;;;;;5075720;28;20252;-80
2022/12/04 02:54:22;;;;;;;28.77;14.43;;;2.00;99.90;;;;;;5075958;28;20641;-81
2022/12/04 02:56:49;;;;;;;30.27;15.10;;;2.00;99.90;;;;;;5074035;28;20271;-81
2022/12/04 02:59:21;;;;;;;26.97;14.83;;;2.00;99.90;;;;;;5074142;28;20175;-81
2022/12/04 03:01:52;;;;;;;26.77;15.30;;;2.00;99.90;;;;;;5074408;28;20198;-80
2022/12/04 03:04:29;;;;;;;27.33;14.63;;;2.00;99.90;;;;;;5075416;28;20163;-80
2022/12/04 03:06:59;;;;;;;27.80;15.27;;;2.00;99.90;;;;;;5075005;28;20190;-81
2022/12/04 03:09:50;;;;;;;27.57;14.90;;;2.00;99.90;;;;;;5075712;28;20163;-81
2022/12/04 03:12:26;;;;;;;25.60;14.63;;;2.00;99.90;;;;;;5073818;28;20206;-81
2022/12/04 03:14:59;;;;;;;33.53;16.50;;;1.90;99.90;;;;;;5074992;28;20220;-81
2022/12/04 03:17:37;;;;;;;27.93;15.57;;;2.00;99.90;;;;;;5073273;28;20339;-81
2022/12/04 03:20:09;;;;;;;23.70;13.63;;;2.00;99.90;;;;;;5073688;28;20170;-81
2022/12/04 03:22:38;;;;;;;29.97;15.83;;;2.00;99.90;;;;;;5074054;28;20535;-81
2022/12/04 03:25:06;;;;;;;29.47;15.27;;;2.00;99.90;;;;;;5074944;28;20205;-80
2022/12/04 03:27:53;;;;;;;29.53;15.57;;;2.00;99.90;;;;;;5073795;28;20293;-81
2022/12/04 03:30:21;;;;;;;28.87;15.50;;;2.00;99.90;;;;;;5074099;28;20304;-81
2022/12/04 03:33:05;;;;;;;27.23;14.37;;;2.00;99.90;;;;;;5074384;28;20263;-80
2022/12/04 03:35:40;;;;;;;27.17;13.97;;;1.90;99.90;;;;;;5073413;28;20164;-80
2022/12/04 03:38:19;;;;;;;32.20;14.43;;;1.90;99.90;;;;;;5074739;28;20234;-80
2022/12/04 03:41:23;;;;;;;25.87;14.70;;;1.90;99.90;;;;;;5076356;28;20163;-80
2022/12/04 03:43:55;;;;;;;29.87;15.30;;;1.90;99.90;;;;;;5078602;28;20170;-80
2022/12/04 03:46:30;;;;;;;24.60;13.17;;;2.00;99.90;;;;;;5073320;28;20191;-80
2022/12/04 03:49:14;;;;;;;27.87;16.37;;;1.80;99.90;;;;;;5075413;28;20163;-80
2022/12/04 03:51:49;;;;;;;28.37;14.90;;;1.80;99.90;;;;;;5073889;28;20198;-80
2022/12/04 03:54:27;;;;;;;24.53;14.20;;;1.80;99.90;;;;;;5075397;28;20162;-81
2022/12/04 03:57:06;;;;;;;27.20;15.10;;;1.80;99.90;;;;;;5073465;28;20205;-79
2022/12/04 03:59:41;;;;;;;26.80;15.13;;;1.70;99.90;;;;;;5075609;28;20165;-80
2022/12/04 04:02:12;;;;;;;23.50;13.90;;;1.70;99.90;;;;;;5073623;28;20172;-80
2022/12/04 04:04:41;;;;;;;27.03;15.20;;;1.70;99.90;;;;;;5073188;28;20178;-79
2022/12/04 04:07:21;;;;;;;27.10;15.03;;;1.70;99.90;;;;;;5073744;28;20301;-81
2022/12/04 04:09:52;;;;;;;25.43;14.50;;;1.70;99.90;;;;;;5076013;28;20155;-81
2022/12/04 04:12:23;;;;;;;28.27;14.23;;;1.70;99.90;;;;;;5075936;28;20189;-79
2022/12/04 04:26:02;;;;;;;23.70;12.67;;;1.60;99.90;;;;;;5075895;28;20612;-80
2022/12/04 04:28:40;;;;;;;24.77;13.13;;;1.60;99.90;;;;;;5075034;28;20168;-80
2022/12/04 04:31:29;;;;;;;24.03;13.70;;;1.60;99.90;;;;;;5075310;28;20191;-81
2022/12/04 04:34:00;;;;;;;26.20;13.33;;;1.60;99.90;;;;;;5076076;28;20163;-80
2022/12/04 04:36:41;;;;;;;24.97;12.90;;;1.50;99.90;;;;;;5074840;28;20695;-80
2022/12/04 04:39:37;;;;;;;25.77;12.73;;;1.50;99.90;;;;;;5073693;28;20666;-80
2022/12/04 04:42:15;;;;;;;23.47;13.17;;;1.50;99.90;;;;;;5073955;28;20641;-80
2022/12/04 04:45:02;;;;;;;23.90;13.23;;;1.50;99.90;;;;;;5073890;28;20163;-80
2022/12/04 04:47:59;;;;;;;23.87;12.70;;;1.50;99.90;;;;;;5072680;28;20209;-80
2022/12/04 04:50:25;;;;;;;26.77;12.63;;;1.50;99.90;;;;;;5072649;28;20175;-80
2022/12/04 04:52:58;;;;;;;24.10;12.67;;;1.40;99.90;;;;;;5072621;28;20198;-80
2022/12/04 04:55:24;;;;;;;24.47;13.53;;;1.40;99.90;;;;;;5072247;28;20170;-80
2022/12/04 04:57:50;;;;;;;26.73;12.83;;;1.50;99.90;;;;;;5077499;28;20644;-80
2022/12/04 05:00:21;;;;;;;20.43;12.43;;;1.50;99.90;;;;;;5075753;28;20261;-80
2022/12/04 05:02:48;;;;;;;25.57;13.17;;;1.40;99.90;;;;;;5077187;28;20171;-80
2022/12/04 05:05:16;;;;;;;24.60;12.87;;;1.40;99.90;;;;;;5074391;28;20205;-79
2022/12/04 05:07:42;;;;;;;22.60;11.40;;;1.40;99.90;;;;;;5077465;28;20175;-80
2022/12/04 05:10:08;;;;;;;22.27;12.67;;;1.40;99.90;;;;;;5076747;28;20202;-80
2022/12/04 05:12:33;;;;;;;19.30;11.67;;;1.40;99.90;;;;;;5077046;28;20652;-80
2022/12/04 05:14:59;;;;;;;22.93;12.80;;;1.40;99.90;;;;;;5079032;28;20187;-80
2022/12/04 05:17:24;;;;;;;23.50;12.83;;;1.40;99.90;;;;;;5081142;28;20249;-79
2022/12/04 05:19:53;;;;;;;19.07;11.20;;;1.40;99.90;;;;;;5080000;28;20174;-80
2022/12/04 05:22:31;;;;;;;20.73;10.43;;;1.40;99.90;;;;;;5081124;28;20628;-80
2022/12/04 05:24:57;;;;;;;22.27;11.60;;;1.40;99.90;;;;;;5080109;28;20237;-80
2022/12/04 05:27:24;;;;;;;22.57;11.33;;;1.40;99.90;;;;;;5080824;28;20308;-80
2022/12/04 05:29:55;;;;;;;20.17;11.73;;;1.40;99.90;;;;;;5080408;28;20194;-81
2022/12/04 05:32:22;;;;;;;19.90;11.37;;;1.40;99.90;;;;;;5079916;28;20285;-80
2022/12/04 05:34:48;;;;;;;22.17;11.33;;;1.40;99.90;;;;;;5079583;28;20181;-80
2022/12/04 05:37:14;;;;;;;19.37;10.87;;;1.30;99.90;;;;;;5078684;28;20203;-80
2022/12/04 05:39:39;;;;;;;19.93;11.70;;;1.40;99.90;;;;;;5079412;28;20239;-80
2022/12/04 05:42:05;;;;;;;19.33;10.73;;;1.30;99.90;;;;;;5078707;28;20178;-80
2022/12/04 05:44:30;;;;;;;15.40;8.77;;;1.40;99.90;;;;;;5079052;28;20182;-80
2022/12/04 05:46:56;;;;;;;16.03;9.80;;;1.40;99.90;;;;;;5078006;28;20209;-80
2022/12/04 05:49:22;;;;;;;20.07;11.07;;;1.40;99.90;;;;;;5080567;28;20189;-80
2022/12/04 05:51:49;;;;;;;21.20;10.73;;;1.40;99.90;;;;;;5078748;28;20202;-80
2022/12/04 05:54:15;;;;;;;20.27;11.13;;;1.40;99.90;;;;;;5080589;28;20167;-80
2022/12/04 05:56:41;;;;;;;20.47;11.40;;;1.40;99.90;;;;;;5078529;28;20217;-79
2022/12/04 05:59:06;;;;;;;21.13;10.47;;;1.40;99.90;;;;;;5079300;28;20181;-80
2022/12/04 06:01:32;;;;;;;20.03;10.93;;;1.40;99.90;;;;;;5079784;28;20187;-80
2022/12/04 06:03:58;;;;;;;17.73;10.10;;;1.50;99.90;;;;;;5079765;28;20201;-80
2022/12/04 06:06:25;;;;;;;19.17;10.17;;;1.40;99.90;;;;;;5077821;28;20201;-80
2022/12/04 06:08:52;;;;;;;18.80;9.97;;;1.50;99.90;;;;;;5079955;28;20562;-80
2022/12/04 06:11:30;;;;;;;16.93;9.50;;;1.40;99.90;;;;;;5079046;28;20199;-81
2022/12/04 06:13:57;;;;;;;20.37;11.37;;;1.40;99.90;;;;;;5077907;28;20163;-79
2022/12/04 06:16:28;;;;;;;20.63;10.93;;;1.40;99.90;;;;;;5079693;28;20193;-80
2022/12/04 06:18:59;;;;;;;16.93;10.17;;;1.40;99.90;;;;;;5078095;28;20182;-80
2022/12/04 06:21:28;;;;;;;20.47;11.30;;;1.40;99.90;;;;;;5079646;28;20163;-80
2022/12/04 06:23:54;;;;;;;20.77;11.37;;;1.40;99.90;;;;;;5077984;28;20186;-80
2022/12/04 06:26:20;;;;;;;13.53;9.17;;;1.40;99.90;;;;;;5078102;28;20221;-80
2022/12/04 06:28:46;;;;;;;17.00;9.90;;;1.40;99.90;;;;;;5080415;28;20576;-81
2022/12/04 06:31:13;;;;;;;18.30;10.80;;;1.40;99.90;;;;;;5077607;28;20197;-80
2022/12/04 06:33:39;;;;;;;17.90;10.30;;;1.40;99.90;;;;;;5078798;28;20205;-80
2022/12/04 06:36:09;;;;;;;17.73;9.73;;;1.40;99.90;;;;;;5079119;28;20194;-80
2022/12/04 06:38:35;;;;;;;21.00;10.87;;;1.40;99.90;;;;;;5079359;28;20166;-80
2022/12/04 06:41:08;;;;;;;19.63;10.53;;;1.40;99.90;;;;;;5079203;28;20169;-80
2022/12/04 06:43:34;;;;;;;19.97;10.53;;;1.40;99.90;;;;;;5079357;28;20187;-80
2022/12/04 06:46:14;;;;;;;19.10;10.73;;;1.40;99.90;;;;;;5078900;28;20226;-81
2022/12/04 06:48:40;;;;;;;17.77;10.23;;;1.40;99.90;;;;;;5079568;28;20166;-80
2022/12/04 06:51:07;;;;;;;19.63;10.30;;;1.40;99.90;;;;;;5078321;28;20198;-81
2022/12/04 06:53:33;;;;;;;16.30;9.70;;;1.40;99.90;;;;;;5078650;28;20175;-80
2022/12/04 06:56:02;;;;;;;18.47;10.27;;;1.50;99.90;;;;;;5079927;28;20240;-81
2022/12/04 06:58:28;;;;;;;18.00;10.30;;;1.50;99.90;;;;;;5079484;28;20174;-81
2022/12/04 07:00:55;;;;;;;19.27;9.70;;;1.50;99.90;;;;;;5078143;28;20243;-81
2022/12/04 07:03:21;;;;;;;17.97;11.13;;;1.50;99.90;;;;;;5078516;28;20555;-81
2022/12/04 07:05:47;;;;;;;19.03;10.67;;;1.50;99.90;;;;;;5077244;28;20233;-81
2022/12/04 07:08:13;;;;;;;17.63;10.03;;;1.50;99.90;;;;;;5077795;28;20171;-81
2022/12/04 07:10:40;;;;;;;17.53;10.40;;;1.50;99.90;;;;;;5077781;28;20659;-81
2022/12/04 07:13:05;;;;;;;17.03;9.97;;;1.50;99.90;;;;;;5077888;28;20171;-81
2022/12/04 07:15:32;;;;;;;16.27;9.70;;;1.60;99.90;;;;;;5079509;28;20178;-81
2022/12/04 07:17:58;;;;;;;17.23;10.03;;;1.60;99.90;;;;;;5077879;28;20217;-81
2022/12/04 07:20:24;;;;;;;17.33;9.63;;;1.60;99.90;;;;;;5076361;28;20179;-81
2022/12/04 07:22:49;;;;;;;17.23;9.70;;;1.60;99.90;;;;;;5075502;28;20186;-81
2022/12/04 07:25:15;;;;;;;15.80;10.00;;;1.60;99.90;;;;;;5076460;28;20245;-80
2022/12/04 07:27:41;;;;;;;14.97;8.30;;;1.60;99.90;;;;;;5076819;28;20180;-81
2022/12/04 07:30:07;;;;;;;15.97;8.70;;;1.60;99.90;;;;;;5077941;28;20225;-80
2022/12/04 07:32:33;;;;;;;15.93;9.37;;;1.60;99.90;;;;;;5076498;28;20209;-80
2022/12/04 07:34:58;;;;;;;15.20;9.17;;;1.60;99.90;;;;;;5078075;28;20641;-81
2022/12/04 07:37:24;;;;;;;14.90;8.83;;;1.70;99.90;;;;;;5075710;28;20754;-81
2022/12/04 07:39:53;;;;;;;13.10;8.90;;;1.70;99.90;;;;;;5075476;28;20611;-81
2022/12/04 07:42:19;;;;;;;14.97;8.67;;;1.60;99.90;;;;;;5076917;28;20181;-80
2022/12/04 07:44:45;;;;;;;15.37;8.67;;;1.70;99.90;;;;;;5077478;28;20243;-81
2022/12/04 07:47:10;;;;;;;15.20;8.37;;;1.70;99.90;;;;;;5076367;28;20222;-81
2022/12/04 07:49:37;;;;;;;14.63;8.43;;;1.70;99.90;;;;;;5076389;28;20487;-81
2022/12/04 07:52:03;;;;;;;15.37;9.17;;;1.70;99.90;;;;;;5075737;28;20201;-80
2022/12/04 07:54:28;;;;;;;14.90;8.57;;;1.70;99.90;;;;;;5076970;28;20259;-81
2022/12/04 07:56:54;;;;;;;12.93;8.10;;;1.70;99.90;;;;;;5075229;28;20245;-81
2022/12/04 07:59:20;;;;;;;13.73;8.83;;;1.70;99.90;;;;;;5075258;28;20193;-81
2022/12/04 08:01:45;;;;;;;13.63;8.43;;;1.70;99.90;;;;;;5074340;28;20203;-81
2022/12/04 08:04:11;;;;;;;12.03;8.13;;;1.70;99.90;;;;;;5075049;28;20224;-81
2022/12/04 08:06:37;;;;;;;13.27;8.07;;;1.70;99.90;;;;;;5075055;28;20259;-82
2022/12/04 08:09:04;;;;;;;13.23;8.20;;;1.70;99.90;;;;;;5075152;28;20179;-81
2022/12/04 08:11:30;;;;;;;15.07;8.87;;;1.70;99.90;;;;;;5075274;28;20210;-82
2022/12/04 08:14:00;;;;;;;14.37;8.90;;;1.70;99.90;;;;;;5077953;28;20189;-80
2022/12/04 08:16:28;;;;;;;14.67;8.03;;;1.70;99.90;;;;;;5077994;28;20201;-81
2022/12/04 08:18:54;;;;;;;13.43;8.50;;;1.70;99.90;;;;;;5075689;28;20186;-82
2022/12/04 08:21:21;;;;;;;13.27;8.00;;;1.70;99.90;;;;;;5075219;28;20290;-81
2022/12/04 08:23:52;;;;;;;12.43;7.33;;;1.70;99.90;;;;;;5075863;28;20171;-81
2022/12/04 08:26:19;;;;;;;11.77;7.23;;;1.80;99.90;;;;;;5074790;28;20206;-81
2022/12/04 08:28:45;;;;;;;12.80;8.33;;;1.70;99.90;;;;;;5074366;28;20552;-80
2022/12/04 08:31:17;;;;;;;14.07;7.83;;;1.70;99.90;;;;;;5076279;28;20266;-81
2022/12/04 08:33:44;;;;;;;12.50;8.30;;;1.70;99.90;;;;;;5075133;28;20600;-82
2022/12/04 08:36:12;;;;;;;12.33;7.90;;;1.70;99.90;;;;;;5074721;28;20205;-82
2022/12/04 08:38:38;;;;;;;13.07;7.87;;;1.80;99.90;;;;;;5074440;28;20174;-81
2022/12/04 08:41:06;;;;;;;12.30;7.63;;;1.80;99.90;;;;;;5075661;28;20683;-79
2022/12/04 08:43:31;;;;;;;12.93;8.00;;;1.80;99.90;;;;;;5073673;28;20262;-79
2022/12/04 08:45:59;;;;;;;12.10;8.03;;;1.80;99.90;;;;;;5074350;28;20226;-81
2022/12/04 08:48:26;;;;;;;13.10;7.67;;;1.80;99.90;;;;;;5072750;28;20261;-83
2022/12/04 08:50:52;;;;;;;13.03;8.07;;;1.80;99.90;;;;;;5072413;28;20175;-83
2022/12/04 08:53:19;;;;;;;13.97;8.27;;;1.80;99.90;;;;;;5074266;28;20167;-83
2022/12/04 08:55:44;;;;;;;13.40;7.87;;;1.80;99.90;;;;;;5073379;28;20264;-84
2022/12/04 08:58:10;;;;;;;13.30;7.70;;;1.80;99.90;;;;;;5071995;28;20275;-81
2022/12/04 09:00:36;;;;;;;13.73;7.80;;;1.90;99.90;;;;;;5071492;28;20178;-80
2022/12/04 09:03:01;;;;;;;11.83;7.57;;;1.90;99.90;;;;;;5074545;28;20235;-80
2022/12/04 09:05:29;;;;;;;12.90;8.10;;;1.90;99.90;;;;;;5072926;28;20195;-81
2022/12/04 09:07:54;;;;;;;11.33;7.33;;;1.90;99.90;;;;;;5073786;28;20605;-82
2022/12/04 09:10:20;;;;;;;12.20;7.83;;;1.90;99.90;;;;;;5075788;28;20253;-81
2022/12/04 09:12:45;;;;;;;11.70;7.73;;;1.90;99.90;;;;;;5074630;28;20209;-80
2022/12/04 09:15:11;;;;;;;13.63;7.87;;;1.90;99.90;;;;;;5074613;28;20179;-81
2022/12/04 09:23:25;;;;;;;13.17;8.07;;;2.00;99.90;;;;;;5055988;28;20234;-81
2022/12/04 09:25:51;;;;;;;13.10;7.23;;;2.00;99.90;;;;;;5055218;28;20184;-81
2022/12/04 09:28:16;;;;;;;15.87;7.63;;;2.00;99.90;;;;;;5037913;28;20632;-81
2022/12/04 09:30:42;;;;;;;12.43;7.67;;;2.00;99.90;;;;;;5055396;28;20187;-81
2022/12/04 09:33:07;;;;;;;10.90;7.13;;;2.00;99.90;;;;;;5037184;28;20225;-80
2022/12/04 09:35:33;;;;;;;11.40;7.37;;;2.00;99.90;;;;;;5116126;22;20259;-78
2022/12/04 09:37:59;;;;;;;12.97;7.53;;;2.00;99.90;;;;;;5093251;28;20170;-78
2022/12/04 09:40:32;;;;;;;11.73;6.77;;;2.00;99.90;;;;;;5093522;28;20181;-79
2022/12/04 09:43:02;;;;;;;13.03;7.70;;;2.00;99.90;;;;;;5093841;28;20158;-79
2022/12/04 09:45:34;;;;;;;11.23;6.93;;;2.00;99.90;;;;;;5093739;28;20661;-78
2022/12/04 09:48:00;;;;;;;12.57;7.80;;;2.00;99.90;;;;;;5093302;28;20668;-78
2022/12/04 09:50:35;;;;;;;13.63;8.53;;;2.10;99.90;;;;;;5074429;28;20316;-77
2022/12/04 09:53:11;;;;;;;13.47;7.93;;;2.10;99.90;;;;;;5093159;28;20221;-79
2022/12/04 09:55:46;;;;;;;13.47;8.07;;;2.10;99.90;;;;;;5094134;28;20182;-77
2022/12/04 09:58:16;;;;;;;12.30;8.30;;;2.10;99.90;;;;;;5076539;28;20547;-80
2022/12/04 10:00:44;;;;;;;12.10;7.43;;;2.20;99.90;;;;;;5094437;28;20613;-79
2022/12/04 10:03:16;;;;;;;13.87;7.80;;;2.10;99.90;;;;;;5079375;28;20644;-79
2022/12/04 10:06:07;;;;;;;12.57;7.63;;;2.10;99.90;;;;;;5097762;28;20626;-79
2022/12/04 10:09:08;;;;;;;12.63;7.77;;;2.20;99.90;;;;;;5093481;28;20308;-77
2022/12/04 10:11:48;;;;;;;12.23;7.83;;;2.30;99.90;;;;;;5095857;28;20209;-77
2022/12/04 10:14:21;;;;;;;11.97;8.13;;;2.20;99.90;;;;;;5077860;28;20270;-78
2022/12/04 10:17:09;;;;;;;11.23;7.53;;;2.20;99.90;;;;;;5077978;28;20182;-78
2022/12/04 10:19:59;;;;;;;13.40;8.00;;;2.30;99.90;;;;;;5079523;28;20716;-78
2022/12/04 10:22:36;;;;;;;12.37;7.23;;;2.30;99.90;;;;;;5096839;28;20201;-77
2022/12/04 10:25:08;;;;;;;12.07;8.10;;;2.30;99.90;;;;;;5095943;28;20221;-77
2022/12/04 10:27:43;;;;;;;13.93;8.53;;;2.30;99.90;;;;;;5095829;28;20233;-78
2022/12/04 10:30:32;;;;;;;13.53;8.20;;;2.30;99.90;;;;;;5077946;28;20250;-78
2022/12/04 10:33:18;;;;;;;12.17;7.50;;;2.30;99.90;;;;;;5095982;28;20251;-77
2022/12/04 10:35:49;;;;;;;16.10;7.87;;;2.30;99.90;;;;;;5095405;28;20710;-77
2022/12/04 10:38:28;;;;;;;13.90;7.63;;;2.30;99.90;;;;;;5077412;28;20253;-78
2022/12/04 10:41:05;;;;;;;13.73;8.47;;;2.40;99.90;;;;;;5077320;28;20184;-76
2022/12/04 10:43:45;;;;;;;13.57;7.63;;;2.40;99.90;;;;;;5095867;28;20158;-77
2022/12/04 10:46:20;;;;;;;13.30;7.83;;;2.40;99.90;;;;;;5077442;28;20198;-78
2022/12/04 10:48:47;;;;;;;12.77;8.53;;;2.40;99.90;;;;;;5077393;28;20168;-77
2022/12/04 10:51:16;;;;;;;15.07;7.97;;;2.40;99.90;;;;;;5095207;28;20247;-77
2022/12/04 10:53:43;;;;;;;12.40;8.07;;;2.40;99.90;;;;;;5095299;28;20249;-77
2022/12/04 10:56:16;;;;;;;12.30;8.10;;;2.40;99.90;;;;;;5077236;28;20566;-76
2022/12/04 10:58:53;;;;;;;15.70;9.17;;;2.40;99.90;;;;;;5095177;28;20248;-78
2022/12/04 11:01:21;;;;;;;15.00;9.37;;;2.40;99.90;;;;;;5095405;28;20683;-76
2022/12/04 11:04:00;;;;;;;16.67;8.77;;;2.50;99.90;;;;;;5076793;28;20178;-76
2022/12/04 11:06:26;;;;;;;13.20;8.23;;;2.50;99.90;;;;;;5076875;28;20205;-76
2022/12/04 11:08:53;;;;;;;15.63;9.13;;;2.50;99.90;;;;;;5076734;28;20666;-77
2022/12/04 11:11:34;;;;;;;12.20;8.60;;;2.50;99.90;;;;;;5076902;28;20194;-77
2022/12/04 11:14:01;;;;;;;18.03;8.47;;;2.50;99.90;;;;;;5094724;28;20241;-77
2022/12/04 11:16:35;;;;;;;12.50;8.00;;;2.50;99.90;;;;;;5094623;28;20194;-77
2022/12/04 11:19:00;;;;;;;12.07;8.10;;;2.50;99.90;;;;;;5094870;28;20238;-77
2022/12/04 11:21:30;;;;;;;14.00;8.67;;;2.50;99.90;;;;;;5095168;28;20236;-77
2022/12/04 11:23:57;;;;;;;12.07;8.00;;;2.50;99.90;;;;;;5094648;28;20170;-77
2022/12/04 11:26:36;;;;;;;14.33;9.30;;;2.50;99.90;;;;;;5076378;28;20285;-77
2022/12/04 11:29:04;;;;;;;14.30;8.33;;;2.60;99.90;;;;;;5094413;28;20243;-77
2022/12/04 11:31:31;;;;;;;10.87;7.17;;;2.60;99.90;;;;;;5076456;28;20689;-77
2022/12/04 11:33:58;;;;;;;13.93;8.57;;;2.60;99.90;;;;;;5094548;28;20245;-76
2022/12/04 11:36:30;;;;;;;16.70;9.03;;;2.60;99.90;;;;;;5076300;28;20237;-77
2022/12/04 11:39:11;;;;;;;15.47;8.37;;;2.60;99.90;;;;;;5077172;28;20181;-78
2022/12/04 11:41:38;;;;;;;13.00;8.40;;;2.60;99.90;;;;;;5095153;28;20647;-76
2022/12/04 11:44:21;;;;;;;14.50;8.93;;;2.60;99.90;;;;;;5094941;28;20170;-78
2022/12/04 11:46:53;;;;;;;15.27;9.03;;;2.60;99.90;;;;;;5076265;28;20178;-76
2022/12/04 11:49:23;;;;;;;15.67;8.83;;;2.60;99.90;;;;;;5094019;28;20162;-75
2022/12/04 11:52:13;;;;;;;14.17;8.87;;;2.70;99.90;;;;;;5075829;28;20205;-78
2022/12/04 11:55:01;;;;;;;16.40;8.67;;;2.60;99.90;;;;;;5093805;28;20247;-76
2022/12/04 11:57:51;;;;;;;15.00;8.97;;;2.60;99.90;;;;;;5094212;28;20151;-75
2022/12/04 12:00:21;;;;;;;16.00;9.63;;;2.60;99.90;;;;;;5093844;28;20155;-77
2022/12/04 12:02:56;;;;;;;14.03;8.70;;;2.70;99.90;;;;;;5093799;28;20175;-77
2022/12/04 12:05:47;;;;;;;16.73;9.60;;;2.70;99.90;;;;;;5075487;28;20213;-76
2022/12/04 12:08:42;;;;;;;13.43;8.93;;;2.70;99.90;;;;;;5093856;28;20154;-76
2022/12/04 12:11:36;;;;;;;13.50;8.97;;;2.70;99.90;;;;;;5093610;28;20170;-77
2022/12/04 12:14:23;;;;;;;16.27;9.93;;;2.70;99.90;;;;;;5080539;28;20186;-77
2022/12/04 12:16:58;;;;;;;19.07;9.13;;;2.70;99.90;;;;;;5093569;28;20170;-76
2022/12/04 12:19:33;;;;;;;19.40;10.60;;;2.70;99.90;;;;;;5093581;28;20149;-77
2022/12/04 12:22:16;;;;;;;17.80;10.43;;;2.70;99.90;;;;;;5093798;28;20244;-77
2022/12/04 12:25:23;;;;;;;16.20;9.43;;;2.70;99.90;;;;;;5093145;28;20189;-76
2022/12/04 12:28:17;;;;;;;17.33;10.33;;;2.80;99.90;;;;;;5014716;28;20271;-77
2022/12/04 12:30:48;;;;;;;16.63;9.93;;;2.80;99.90;;;;;;5093692;28;20158;-77
2022/12/04 12:33:27;;;;;;;17.07;10.00;;;2.80;99.90;;;;;;5077182;28;20202;-77
2022/12/04 12:36:07;;;;;;;16.13;9.33;;;2.80;99.90;;;;;;5094679;28;20218;-77
2022/12/04 12:38:56;;;;;;;17.53;10.17;;;2.80;99.90;;;;;;5075301;28;20249;-76
2022/12/04 12:41:36;;;;;;;16.00;9.43;;;2.80;99.90;;;;;;5075274;28;20174;-76
2022/12/04 12:44:31;;;;;;;20.37;10.00;;;2.70;99.90;;;;;;5074961;28;20170;-77
2022/12/04 12:47:04;;;;;;;17.30;9.93;;;2.80;99.90;;;;;;5074986;28;20166;-77
2022/12/04 12:50:05;;;;;;;17.37;10.00;;;2.80;99.90;;;;;;5074931;28;20650;-77
2022/12/04 12:52:57;;;;;;;19.17;10.27;;;2.80;99.90;;;;;;5043178;28;20222;-77
2022/12/04 12:55:29;;;;;;;15.40;9.17;;;2.80;99.90;;;;;;5093210;28;20610;-77
2022/12/04 12:58:20;;;;;;;16.73;9.80;;;2.80;99.90;;;;;;5092997;28;20648;-77
2022/12/04 13:01:07;;;;;;;14.27;8.70;;;2.90;99.90;;;;;;5093121;28;20177;-77
2022/12/04 13:03:44;;;;;;;15.53;9.17;;;2.90;99.90;;;;;;5075111;28;20235;-77
2022/12/04 13:06:22;;;;;;;17.13;9.57;;;2.90;99.90;;;;;;5092889;28;20190;-77
2022/12/04 13:09:13;;;;;;;14.33;9.27;;;2.90;99.90;;;;;;5092851;28;20219;-77
2022/12/04 13:11:40;;;;;;;14.03;9.00;;;2.90;99.90;;;;;;5089723;28;20267;-77
2022/12/04 13:14:06;;;;;;;18.43;10.13;;;2.80;99.90;;;;;;5074681;28;20185;-76
2022/12/04 13:16:41;;;;;;;15.70;8.53;;;2.80;99.90;;;;;;5074801;28;20178;-76
2022/12/04 13:19:28;;;;;;;15.00;8.63;;;2.90;99.90;;;;;;5092878;28;20166;-77
2022/12/04 13:22:20;;;;;;;15.33;9.10;;;2.90;99.90;;;;;;5074754;28;20174;-75